createdAt,value
2023-02-16T00:02:10.580Z,1.43
2023-02-16T00:04:37.401Z,1.48
2023-02-16T00:07:04.279Z,1.53
2023-02-16T00:09:31.000Z,1.57
2023-02-16T00:12:16.322Z,1.60
2023-02-16T00:14:43.239Z,1.52
2023-02-16T00:17:11.301Z,1.51
2023-02-16T00:19:40.086Z,1.54
2023-02-16T00:22:07.681Z,1.56
2023-02-16T00:24:34.955Z,1.54
2023-02-16T00:27:01.892Z,1.55
2023-02-16T00:29:32.807Z,1.50
2023-02-16T00:32:01.836Z,1.56
2023-02-16T00:34:37.137Z,1.55
2023-02-16T00:37:06.803Z,1.54
2023-02-16T00:39:33.899Z,1.45
2023-02-16T00:42:03.738Z,1.47
2023-02-16T00:44:41.004Z,1.45
2023-02-16T00:47:21.924Z,1.42
2023-02-16T00:49:51.002Z,1.37
2023-02-16T00:52:39.778Z,1.22
2023-02-16T00:55:12.711Z,1.21
2023-02-16T00:57:43.114Z,1.13
2023-02-16T01:00:21.021Z,1.12
2023-02-16T01:02:50.221Z,1.18
2023-02-16T01:05:17.233Z,1.10
2023-02-16T01:08:02.641Z,1.12
2023-02-16T01:10:48.529Z,1.12
2023-02-16T01:13:15.774Z,1.10
2023-02-16T01:15:43.126Z,1.04
2023-02-16T01:18:14.015Z,1.05
2023-02-16T01:20:47.806Z,0.99
2023-02-16T01:23:14.582Z,1.03
2023-02-16T01:25:41.849Z,1.03
2023-02-16T01:28:21.669Z,1.04
2023-02-16T01:30:49.555Z,1.08
2023-02-16T01:33:16.505Z,0.98
2023-02-16T01:35:44.438Z,0.96
2023-02-16T01:38:24.014Z,0.91
2023-02-16T01:41:22.523Z,0.87
2023-02-16T01:44:03.859Z,0.89
2023-02-16T01:46:44.532Z,0.83
2023-02-16T01:49:16.600Z,0.91
2023-02-16T01:51:55.443Z,0.94
2023-02-16T01:54:47.668Z,0.95
2023-02-16T01:57:29.170Z,0.98
2023-02-16T01:59:55.878Z,0.97
2023-02-16T02:02:25.920Z,0.93
2023-02-16T02:05:18.922Z,1.06
2023-02-16T02:08:01.181Z,0.94
2023-02-16T02:10:55.986Z,0.92
2023-02-16T02:13:36.161Z,0.80
2023-02-16T02:16:05.373Z,0.87
2023-02-16T02:18:32.278Z,0.87
2023-02-16T02:21:43.944Z,0.88
2023-02-16T02:24:19.715Z,0.77
2023-02-16T02:27:08.233Z,0.65
2023-02-16T02:29:50.132Z,0.77
2023-02-16T02:32:20.818Z,0.84
2023-02-16T02:35:09.007Z,0.77
2023-02-16T02:37:44.663Z,0.73
2023-02-16T02:40:14.432Z,0.77
2023-02-16T02:42:45.970Z,0.84
2023-02-16T02:45:28.435Z,0.86
2023-02-16T02:47:55.306Z,0.84
2023-02-16T02:50:42.234Z,0.86
2023-02-16T02:53:15.591Z,0.84
2023-02-16T02:56:06.945Z,0.87
2023-02-16T02:59:11.719Z,0.84
2023-02-16T03:01:43.812Z,0.83
2023-02-16T03:04:12.828Z,0.82
2023-02-16T03:06:43.500Z,0.83
2023-02-16T03:09:14.195Z,0.82
2023-02-16T03:12:00.564Z,0.74
2023-02-16T03:14:37.971Z,0.81
2023-02-16T03:17:34.421Z,0.86
2023-02-16T03:20:24.376Z,0.81
2023-02-16T03:23:10.260Z,0.84
2023-02-16T03:25:57.533Z,0.78
2023-02-16T03:28:45.920Z,0.77
2023-02-16T03:31:18.639Z,0.79
2023-02-16T03:33:47.092Z,0.71
2023-02-16T03:36:13.916Z,0.68
2023-02-16T03:38:40.856Z,0.65
2023-02-16T03:41:07.577Z,0.71
2023-02-16T03:43:34.430Z,0.64
2023-02-16T03:46:01.191Z,0.59
2023-02-16T03:48:27.894Z,0.60
2023-02-16T03:50:54.596Z,0.59
2023-02-16T03:53:21.303Z,0.59
2023-02-16T03:55:48.987Z,0.55
2023-02-16T03:58:19.330Z,0.59
2023-02-16T04:00:46.148Z,0.55
2023-02-16T04:03:13.762Z,0.59
2023-02-16T04:05:41.028Z,0.60
2023-02-16T04:08:09.062Z,0.59
2023-02-16T04:10:36.371Z,0.60
2023-02-16T04:13:03.972Z,0.58
2023-02-16T04:15:31.813Z,0.59
2023-02-16T04:17:58.779Z,0.55
2023-02-16T04:20:28.725Z,0.63
2023-02-16T04:22:55.755Z,0.66
2023-02-16T04:25:22.709Z,0.63
2023-02-16T04:27:50.312Z,0.68
2023-02-16T04:30:23.123Z,0.67
2023-02-16T04:32:49.907Z,0.76
2023-02-16T04:35:17.798Z,0.80
2023-02-16T04:37:44.499Z,0.76
2023-02-16T04:40:13.809Z,0.78
2023-02-16T04:42:44.927Z,0.87
2023-02-16T04:45:12.688Z,0.84
2023-02-16T04:47:39.577Z,0.84
2023-02-16T04:50:07.088Z,0.91
2023-02-16T04:52:34.348Z,0.90
2023-02-16T04:55:01.032Z,0.98
2023-02-16T04:57:29.210Z,0.94
2023-02-16T04:59:55.931Z,1.05
2023-02-16T05:02:22.807Z,1.09
2023-02-16T05:04:49.763Z,0.99
2023-02-16T05:07:16.468Z,1.02
2023-02-16T05:09:43.149Z,1.07
2023-02-16T05:12:30.220Z,1.07
2023-02-16T05:14:57.051Z,1.07
2023-02-16T05:17:26.696Z,1.05
2023-02-16T05:19:57.148Z,1.06
2023-02-16T05:22:24.299Z,1.07
2023-02-16T05:24:51.518Z,1.10
2023-02-16T05:27:25.585Z,1.14
2023-02-16T05:29:52.569Z,1.07
2023-02-16T05:32:20.059Z,1.07
2023-02-16T05:34:47.570Z,1.07
2023-02-16T05:37:16.048Z,1.02
2023-02-16T05:39:43.599Z,1.02
2023-02-16T05:42:11.351Z,0.98
2023-02-16T05:44:38.437Z,1.06
2023-02-16T05:47:05.222Z,1.04
2023-02-16T05:49:32.718Z,1.02
2023-02-16T05:51:59.353Z,1.03
2023-02-16T05:54:27.972Z,1.01
2023-02-16T05:56:55.437Z,1.13
2023-02-16T05:59:22.273Z,1.06
2023-02-16T06:01:51.922Z,1.01
2023-02-16T06:04:20.112Z,1.06
2023-02-16T06:06:46.891Z,1.09
2023-02-16T06:09:13.701Z,1.12
2023-02-16T06:11:40.478Z,1.06
2023-02-16T06:14:07.318Z,1.05
2023-02-16T06:16:35.103Z,1.06
2023-02-16T06:19:02.487Z,1.01
2023-02-16T06:21:29.490Z,0.97
2023-02-16T06:23:56.396Z,1.01
2023-02-16T06:26:23.401Z,0.99
2023-02-16T06:28:50.298Z,0.97
2023-02-16T06:31:17.499Z,1.03
2023-02-16T06:33:44.565Z,0.96
2023-02-16T06:36:11.444Z,0.96
2023-02-16T06:38:38.275Z,0.90
2023-02-16T06:41:06.221Z,0.96
2023-02-16T06:43:33.211Z,0.99
2023-02-16T06:45:59.981Z,0.98
2023-02-16T06:48:26.880Z,0.96
2023-02-16T06:50:53.712Z,0.92
2023-02-16T06:53:20.884Z,0.90
2023-02-16T06:55:50.844Z,0.90
2023-02-16T06:58:17.683Z,0.91
2023-02-16T07:00:44.461Z,0.91
2023-02-16T07:03:11.433Z,0.96
2023-02-16T07:05:38.083Z,1.01
2023-02-16T07:08:04.945Z,1.03
2023-02-16T07:10:47.485Z,1.04
2023-02-16T07:13:16.157Z,1.07
2023-02-16T07:15:42.915Z,1.10
2023-02-16T07:18:09.716Z,1.21
2023-02-16T07:20:36.673Z,1.26
2023-02-16T07:23:03.772Z,1.35
2023-02-16T07:25:30.616Z,1.39
2023-02-16T07:27:57.373Z,1.43
2023-02-16T07:30:24.164Z,1.67
2023-02-16T07:32:50.849Z,1.52
2023-02-16T07:35:17.607Z,1.48
2023-02-16T07:37:44.278Z,1.63
2023-02-16T07:40:11.595Z,1.72
2023-02-16T07:42:39.059Z,1.63
2023-02-16T07:45:05.992Z,1.78
2023-02-16T07:47:32.726Z,1.91
2023-02-16T07:49:59.398Z,2.08
2023-02-16T07:52:30.829Z,2.13
2023-02-16T07:54:58.969Z,2.28
2023-02-16T07:57:27.155Z,2.34
2023-02-16T07:59:54.505Z,2.44
2023-02-16T08:02:22.746Z,2.62
2023-02-16T08:04:49.946Z,2.78
2023-02-16T08:07:17.759Z,2.74
2023-02-16T08:09:44.729Z,2.85
2023-02-16T08:12:13.073Z,2.86
2023-02-16T08:14:40.602Z,2.79
2023-02-16T08:17:08.222Z,2.78
2023-02-16T08:19:35.366Z,2.82
2023-02-16T08:22:05.056Z,2.97
2023-02-16T08:24:32.102Z,3.04
2023-02-16T08:26:59.893Z,3.16
2023-02-16T08:29:26.798Z,3.28
2023-02-16T08:31:55.711Z,3.62
2023-02-16T08:34:23.501Z,3.72
2023-02-16T08:36:56.506Z,3.72
2023-02-16T08:39:26.815Z,3.87
2023-02-16T08:41:54.899Z,4.03
2023-02-16T08:44:23.925Z,3.91
2023-02-16T08:46:52.258Z,4.12
2023-02-16T08:49:21.869Z,4.33
2023-02-16T08:51:54.886Z,4.39
2023-02-16T08:54:27.057Z,4.83
2023-02-16T08:56:55.602Z,4.96
2023-02-16T08:59:23.489Z,5.15
2023-02-16T09:01:51.012Z,5.26
2023-02-16T09:04:19.935Z,5.74
2023-02-16T09:06:48.585Z,5.98
2023-02-16T09:09:15.802Z,6.36
2023-02-16T09:11:42.822Z,6.68
2023-02-16T09:14:10.405Z,6.76
2023-02-16T09:16:39.648Z,6.98
2023-02-16T09:19:07.274Z,7.34
2023-02-16T09:21:34.338Z,7.49
2023-02-16T09:24:03.722Z,7.86
2023-02-16T09:26:33.283Z,7.50
2023-02-16T09:29:01.850Z,8.04
2023-02-16T09:31:32.071Z,8.17
2023-02-16T09:34:16.238Z,8.07
2023-02-16T09:36:43.401Z,8.51
2023-02-16T09:39:10.248Z,8.35
2023-02-16T09:41:55.794Z,8.01
2023-02-16T09:44:41.021Z,8.43
2023-02-16T09:47:31.604Z,8.38
2023-02-16T09:50:13.232Z,8.12
2023-02-16T09:52:47.311Z,8.06
2023-02-16T09:55:16.482Z,7.49
2023-02-16T09:58:05.773Z,7.46
2023-02-16T10:00:46.211Z,7.16
2023-02-16T10:03:47.695Z,7.09
2023-02-16T10:06:14.406Z,7.00
2023-02-16T10:08:50.329Z,6.98
2023-02-16T10:11:38.821Z,6.93
2023-02-16T10:14:17.027Z,6.86
2023-02-16T10:16:52.577Z,6.79
2023-02-16T10:19:43.370Z,6.72
2023-02-16T10:22:17.320Z,6.69
2023-02-16T10:24:54.920Z,6.68
2023-02-16T10:27:22.115Z,6.68
2023-02-16T10:29:49.047Z,6.73
2023-02-16T10:32:43.761Z,6.57
2023-02-16T10:35:15.281Z,6.61
2023-02-16T10:37:52.035Z,6.56
2023-02-16T10:40:46.756Z,6.58
2023-02-16T10:43:25.040Z,6.30
2023-02-16T10:45:54.230Z,6.29
2023-02-16T10:48:22.779Z,6.22
2023-02-16T10:51:14.102Z,6.15
2023-02-16T10:53:50.928Z,6.21
2023-02-16T10:56:24.482Z,6.23
2023-02-16T10:58:51.671Z,6.20
2023-02-16T11:01:21.829Z,6.24
2023-02-16T11:03:51.985Z,6.22
2023-02-16T11:06:25.609Z,6.17
2023-02-16T11:08:59.881Z,6.13
2023-02-16T11:11:36.788Z,6.09
2023-02-16T11:14:09.139Z,6.10
2023-02-16T11:16:36.022Z,6.14
2023-02-16T11:19:08.776Z,6.10
2023-02-16T11:21:49.598Z,6.14
2023-02-16T11:24:25.661Z,6.54
2023-02-16T11:27:12.741Z,6.55
2023-02-16T11:29:40.537Z,6.45
2023-02-16T11:32:12.954Z,6.40
2023-02-16T11:34:43.221Z,6.51
2023-02-16T11:37:28.604Z,6.66
2023-02-16T11:40:02.381Z,6.87
2023-02-16T11:42:35.114Z,6.89
2023-02-16T11:45:04.797Z,6.96
2023-02-16T11:47:37.647Z,6.96
2023-02-16T11:50:17.168Z,6.95
2023-02-16T11:52:44.019Z,6.90
2023-02-16T11:55:22.222Z,6.95
2023-02-16T11:57:49.075Z,6.99
2023-02-16T12:00:19.271Z,6.99
2023-02-16T12:03:09.760Z,6.97
2023-02-16T12:05:47.588Z,6.90
2023-02-16T12:08:42.969Z,6.96
2023-02-16T12:11:28.062Z,6.91
2023-02-16T12:14:01.738Z,6.97
2023-02-16T12:17:01.796Z,6.84
2023-02-16T12:19:39.824Z,6.89
2023-02-16T12:22:40.099Z,6.90
2023-02-16T12:25:31.176Z,6.84
2023-02-16T12:28:25.911Z,6.80
2023-02-16T12:30:58.926Z,6.87
2023-02-16T12:33:49.647Z,6.98
2023-02-16T12:36:35.862Z,6.98
2023-02-16T12:39:15.611Z,6.94
2023-02-16T12:41:45.703Z,6.89
2023-02-16T12:44:20.449Z,6.83
2023-02-16T12:46:51.965Z,6.88
2023-02-16T12:49:51.002Z,7.12
2023-02-16T12:52:41.587Z,7.20
2023-02-16T12:55:26.931Z,7.25
2023-02-16T12:58:12.129Z,7.30
2023-02-16T13:00:56.111Z,7.33
2023-02-16T13:03:38.800Z,7.56
2023-02-16T13:06:55.810Z,7.69
2023-02-16T13:09:51.999Z,7.97
2023-02-16T13:12:31.715Z,7.82
2023-02-16T13:15:06.464Z,7.87
2023-02-16T13:17:39.500Z,7.92
2023-02-16T13:20:16.805Z,8.05
2023-02-16T13:22:55.699Z,7.97
2023-02-16T13:25:35.245Z,7.85
2023-02-16T13:28:27.784Z,7.82
2023-02-16T13:31:36.175Z,7.75
2023-02-16T13:34:06.115Z,7.88
2023-02-16T13:37:10.653Z,7.76
2023-02-16T13:40:22.284Z,7.72
2023-02-16T13:42:49.085Z,7.75
2023-02-16T13:45:20.923Z,7.92
2023-02-16T13:47:47.637Z,7.89
2023-02-16T13:50:20.604Z,7.98
2023-02-16T13:52:49.209Z,7.92
2023-02-16T13:55:22.054Z,7.93
2023-02-16T13:57:50.746Z,8.03
2023-02-16T14:00:36.804Z,8.09
2023-02-16T14:03:12.092Z,8.05
2023-02-16T14:05:42.439Z,8.04
2023-02-16T14:08:21.100Z,8.08
2023-02-16T14:10:53.971Z,8.07
2023-02-16T14:13:38.919Z,8.11
2023-02-16T14:16:18.062Z,8.11
2023-02-16T14:18:57.017Z,8.15
2023-02-16T14:21:43.448Z,8.11
2023-02-16T14:24:25.007Z,8.09
2023-02-16T14:27:01.059Z,8.05
2023-02-16T14:29:54.006Z,8.05
2023-02-16T14:32:31.507Z,8.11
2023-02-16T14:35:23.039Z,8.02
2023-02-16T14:37:58.415Z,8.06
2023-02-16T14:40:52.255Z,8.14
2023-02-16T14:43:30.007Z,8.08
2023-02-16T14:46:30.772Z,8.14
2023-02-16T14:49:34.634Z,8.02
2023-02-16T14:52:23.042Z,8.00
2023-02-16T14:55:17.794Z,8.01
2023-02-16T14:57:53.819Z,8.00
2023-02-16T15:00:46.010Z,7.96
2023-02-16T15:03:25.300Z,7.99
2023-02-16T15:05:57.192Z,8.03
2023-02-16T15:08:35.209Z,8.02
2023-02-16T15:11:13.792Z,8.00
2023-02-16T15:13:41.161Z,7.96
2023-02-16T15:16:13.816Z,7.99
2023-02-16T15:18:44.991Z,8.02
2023-02-16T15:21:30.642Z,8.00
2023-02-16T15:24:00.518Z,8.01
2023-02-16T15:26:33.414Z,8.06
2023-02-16T15:29:30.530Z,8.03
2023-02-16T15:31:59.564Z,8.03
2023-02-16T15:34:36.058Z,8.03
2023-02-16T15:37:22.808Z,7.98
2023-02-16T15:40:08.767Z,7.97
2023-02-16T15:42:39.646Z,7.94
2023-02-16T15:45:33.114Z,7.94
2023-02-16T15:48:26.662Z,7.91
2023-02-16T15:51:05.488Z,7.97
2023-02-16T15:53:44.238Z,7.96
2023-02-16T15:56:34.142Z,7.93
2023-02-16T15:59:04.336Z,7.98
2023-02-16T16:01:37.289Z,7.96
2023-02-16T16:04:19.486Z,7.93
2023-02-16T16:06:48.270Z,7.94
2023-02-16T16:09:31.747Z,7.91
2023-02-16T16:12:02.839Z,7.91
2023-02-16T16:14:33.137Z,7.92
2023-02-16T16:17:00.637Z,7.88
2023-02-16T16:19:35.501Z,8.01
2023-02-16T16:22:06.595Z,7.93
2023-02-16T16:24:39.288Z,7.93
2023-02-16T16:27:09.682Z,7.90
2023-02-16T16:29:36.458Z,7.89
2023-02-16T16:32:05.558Z,7.92
2023-02-16T16:34:39.063Z,7.89
2023-02-16T16:37:20.325Z,7.85
2023-02-16T16:40:00.588Z,7.85
2023-02-16T16:42:28.445Z,7.90
2023-02-16T16:45:01.682Z,7.82
2023-02-16T16:47:45.306Z,7.73
2023-02-16T16:50:14.433Z,7.72
2023-02-16T16:52:49.712Z,7.72
2023-02-16T16:55:22.442Z,7.73
2023-02-16T16:57:57.810Z,7.62
2023-02-16T17:00:28.432Z,7.55
2023-02-16T17:02:55.267Z,7.59
2023-02-16T17:05:22.079Z,7.55
2023-02-16T17:07:50.073Z,7.58
2023-02-16T17:10:18.925Z,7.56
2023-02-16T17:12:47.943Z,7.57
2023-02-16T17:15:27.034Z,7.60
2023-02-16T17:17:53.898Z,7.56
2023-02-16T17:20:21.331Z,7.59
2023-02-16T17:22:48.272Z,7.55
2023-02-16T17:25:15.149Z,7.54
2023-02-16T17:27:42.100Z,7.58
2023-02-16T17:30:11.156Z,7.60
2023-02-16T17:32:42.079Z,7.63
2023-02-16T17:35:08.957Z,7.61
2023-02-16T17:37:36.845Z,7.62
2023-02-16T17:40:11.413Z,7.64
2023-02-16T17:42:38.544Z,7.64
2023-02-16T17:45:05.628Z,7.61
2023-02-16T17:47:32.435Z,7.62
2023-02-16T17:49:59.177Z,7.65
2023-02-16T17:52:26.415Z,7.64
2023-02-16T17:54:53.089Z,7.57
2023-02-16T17:57:19.786Z,7.58
2023-02-16T17:59:46.611Z,7.64
2023-02-16T18:02:13.389Z,7.60
2023-02-16T18:04:43.082Z,7.62
2023-02-16T18:07:14.169Z,7.61
2023-02-16T18:09:41.592Z,7.58
2023-02-16T18:12:08.684Z,7.54
2023-02-16T18:14:36.150Z,7.58
2023-02-16T18:17:04.055Z,7.50
2023-02-16T18:19:32.102Z,7.50
2023-02-16T18:22:00.297Z,7.40
2023-02-16T18:24:27.030Z,7.39
2023-02-16T18:26:55.413Z,7.42
2023-02-16T18:29:22.564Z,7.42
2023-02-16T18:31:49.417Z,7.41
2023-02-16T18:34:16.245Z,7.42
2023-02-16T18:36:43.143Z,7.47
2023-02-16T18:39:10.312Z,7.47
2023-02-16T18:41:37.273Z,7.46
2023-02-16T18:44:05.716Z,7.44
2023-02-16T18:46:32.984Z,7.44
2023-02-16T18:48:59.771Z,7.42
2023-02-16T18:51:29.320Z,7.41
2023-02-16T18:53:57.125Z,7.35
2023-02-16T18:56:23.959Z,7.34
2023-02-16T18:58:50.652Z,7.29
2023-02-16T19:01:27.132Z,7.29
2023-02-16T19:03:54.085Z,7.28
2023-02-16T19:06:21.176Z,7.31
2023-02-16T19:08:47.978Z,7.30
2023-02-16T19:11:14.869Z,7.28
2023-02-16T19:13:41.850Z,7.23
2023-02-16T19:16:08.979Z,7.19
2023-02-16T19:18:35.886Z,7.16
2023-02-16T19:21:11.455Z,7.19
2023-02-16T19:23:38.340Z,7.18
2023-02-16T19:26:07.760Z,7.18
2023-02-16T19:28:35.261Z,7.16
2023-02-16T19:31:04.734Z,7.15
2023-02-16T19:33:32.100Z,7.16
2023-02-16T19:36:08.006Z,7.19
2023-02-16T19:38:34.848Z,7.13
2023-02-16T19:41:08.809Z,7.13
2023-02-16T19:43:35.628Z,7.13
2023-02-16T19:46:04.421Z,7.15
2023-02-16T19:48:31.370Z,7.14
2023-02-16T19:50:59.469Z,7.11
2023-02-16T19:53:26.531Z,7.11
2023-02-16T19:55:54.899Z,7.15
2023-02-16T19:58:22.644Z,7.15
2023-02-16T20:00:49.377Z,7.19
2023-02-16T20:03:20.071Z,7.15
2023-02-16T20:05:46.940Z,7.14
2023-02-16T20:08:13.781Z,7.13
2023-02-16T20:10:43.837Z,7.17
2023-02-16T20:13:11.025Z,7.20
2023-02-16T20:15:37.828Z,7.22
2023-02-16T20:18:05.978Z,7.24
2023-02-16T20:20:34.353Z,7.22
2023-02-16T20:23:01.075Z,7.23
2023-02-16T20:25:27.953Z,7.25
2023-02-16T20:27:57.275Z,7.27
2023-02-16T20:30:25.336Z,7.28
2023-02-16T20:32:52.278Z,7.27
2023-02-16T20:35:19.078Z,7.30
2023-02-16T20:37:45.894Z,7.34
2023-02-16T20:40:13.311Z,7.32
2023-02-16T20:42:40.326Z,7.33
2023-02-16T20:45:07.618Z,7.34
2023-02-16T20:47:34.390Z,7.35
2023-02-16T20:50:01.105Z,7.34
2023-02-16T20:52:27.962Z,7.41
2023-02-16T20:54:54.725Z,7.41
2023-02-16T20:57:27.173Z,7.37
2023-02-16T20:59:54.788Z,7.42
2023-02-16T21:02:21.611Z,7.44
2023-02-16T21:04:48.580Z,7.41
2023-02-16T21:07:15.297Z,7.42
2023-02-16T21:09:42.508Z,7.43
2023-02-16T21:12:09.306Z,7.39
2023-02-16T21:14:35.979Z,7.42
2023-02-16T21:17:03.197Z,7.46
2023-02-16T21:19:30.186Z,7.41
2023-02-16T21:21:56.855Z,7.46
2023-02-16T21:24:23.742Z,7.44
2023-02-16T21:26:50.555Z,7.45
2023-02-16T21:29:17.259Z,7.48
2023-02-16T21:31:44.188Z,7.45
2023-02-16T21:34:11.103Z,7.39
2023-02-16T21:36:38.781Z,7.40
2023-02-16T21:39:05.827Z,7.35
2023-02-16T21:41:32.727Z,7.38
2023-02-16T21:44:05.618Z,7.40
2023-02-16T21:46:43.913Z,7.46
2023-02-16T21:49:19.519Z,7.42
2023-02-16T21:51:47.911Z,7.43
2023-02-16T21:54:17.387Z,7.40
2023-02-16T21:56:49.099Z,7.44
2023-02-16T21:59:18.355Z,7.41
2023-02-16T22:01:47.228Z,7.39
2023-02-16T22:04:16.626Z,7.38
2023-02-16T22:06:46.449Z,7.39
2023-02-16T22:09:17.509Z,7.37
2023-02-16T22:11:45.276Z,7.44
2023-02-16T22:14:12.375Z,7.41
2023-02-16T22:16:40.047Z,7.35
2023-02-16T22:19:13.365Z,7.39
2023-02-16T22:21:42.389Z,7.30
2023-02-16T22:24:12.356Z,7.34
2023-02-16T22:26:39.080Z,7.33
2023-02-16T22:29:07.371Z,7.39
2023-02-16T22:31:35.036Z,7.31
2023-02-16T22:34:04.960Z,7.29
2023-02-16T22:36:32.562Z,7.34
2023-02-16T22:38:59.573Z,7.27
2023-02-16T22:41:26.731Z,7.29
2023-02-16T22:43:55.520Z,7.25
2023-02-16T22:46:23.966Z,7.28
2023-02-16T22:48:51.946Z,7.25
2023-02-16T22:51:20.395Z,7.25
2023-02-16T22:53:48.054Z,7.24
2023-02-16T22:56:18.333Z,7.22
2023-02-16T22:58:46.166Z,7.19
2023-02-16T23:01:15.801Z,7.16
2023-02-16T23:03:42.864Z,7.17
2023-02-16T23:06:15.043Z,7.17
2023-02-16T23:08:42.694Z,7.17
2023-02-16T23:11:09.530Z,7.15
2023-02-16T23:13:36.324Z,7.17
2023-02-16T23:16:06.663Z,7.19
2023-02-16T23:18:34.513Z,7.20
2023-02-16T23:21:08.899Z,7.13
2023-02-16T23:23:36.693Z,7.11
2023-02-16T23:26:07.101Z,7.14
2023-02-16T23:28:35.575Z,7.19
2023-02-16T23:31:02.545Z,7.16
2023-02-16T23:33:29.388Z,7.14
2023-02-16T23:35:56.174Z,7.17
2023-02-16T23:38:22.892Z,7.13
2023-02-16T23:41:16.010Z,7.08
2023-02-16T23:43:43.159Z,7.05
2023-02-16T23:46:10.898Z,7.07
2023-02-16T23:48:38.461Z,7.10
2023-02-16T23:51:05.527Z,7.10
2023-02-16T23:53:32.580Z,7.04
2023-02-16T23:56:08.420Z,7.02
2023-02-16T23:58:41.271Z,7.00
